createdAt,value
2017-04-09T00:00:06.766Z,101856
2017-04-09T00:01:06.875Z,101844
2017-04-09T00:02:07.143Z,101837
2017-04-09T00:03:07.611Z,101839
2017-04-09T00:04:08.411Z,101841
2017-04-09T00:05:08.507Z,101837
2017-04-09T00:06:08.586Z,101834
2017-04-09T00:07:08.820Z,101838
2017-04-09T00:08:09.289Z,101839
2017-04-09T00:09:10.096Z,101841
2017-04-09T00:10:10.155Z,101841
2017-04-09T00:11:10.275Z,101839
2017-04-09T00:12:10.395Z,101831
2017-04-09T00:13:11.530Z,101826
2017-04-09T00:14:11.673Z,101835
2017-04-09T00:15:12.598Z,101837
2017-04-09T00:16:12.710Z,101837
2017-04-09T00:17:12.971Z,101836
2017-04-09T00:18:13.354Z,101832
2017-04-09T00:19:15.879Z,101836
2017-04-09T00:20:16.090Z,101832
2017-04-09T00:21:16.135Z,101832
2017-04-09T00:22:17.185Z,101838
2017-04-09T00:23:17.580Z,101835
2017-04-09T00:24:17.726Z,101829
2017-04-09T00:25:21.792Z,101834
2017-04-09T00:26:21.876Z,101832
2017-04-09T00:27:21.910Z,101824
2017-04-09T00:28:22.929Z,101832
2017-04-09T00:29:23.752Z,101831
2017-04-09T00:30:24.870Z,101832
2017-04-09T00:31:24.952Z,101832
2017-04-09T00:32:25.080Z,101837
2017-04-09T00:33:25.525Z,101829
2017-04-09T00:34:26.284Z,101834
2017-04-09T00:35:27.054Z,101832
2017-04-09T00:36:27.139Z,101833
2017-04-09T00:37:27.389Z,101834
2017-04-09T00:38:27.678Z,101835
2017-04-09T00:39:27.757Z,101838
2017-04-09T00:40:29.109Z,101837
2017-04-09T00:41:29.261Z,101838
2017-04-09T00:42:29.258Z,101840
2017-04-09T00:43:30.356Z,101825
2017-04-09T00:44:30.355Z,101831
2017-04-09T00:45:30.393Z,101831
2017-04-09T00:46:30.423Z,101820
2017-04-09T00:47:31.260Z,101828
2017-04-09T00:48:31.669Z,101832
2017-04-09T00:49:32.046Z,101825
2017-04-09T00:50:32.147Z,101826
2017-04-09T00:51:32.209Z,101832
2017-04-09T00:52:32.230Z,101832
2017-04-09T00:53:32.607Z,101824
2017-04-09T00:54:32.737Z,101820
2017-04-09T00:55:32.724Z,101827
2017-04-09T00:56:32.711Z,101823
2017-04-09T00:57:32.918Z,101825
2017-04-09T00:58:33.395Z,101829
2017-04-09T00:59:33.414Z,101827
2017-04-09T01:00:33.484Z,101822
2017-04-09T01:01:33.576Z,101824
2017-04-09T01:02:33.675Z,101827
2017-04-09T01:03:34.103Z,101829
2017-04-09T01:04:34.142Z,101828
2017-04-09T01:05:34.281Z,101822
2017-04-09T01:06:34.403Z,101829
2017-04-09T01:07:34.467Z,101820
2017-04-09T01:08:34.554Z,101818
2017-04-09T01:09:35.322Z,101820
2017-04-09T01:10:35.331Z,101816
2017-04-09T01:11:36.019Z,101817
2017-04-09T01:12:36.782Z,101819
2017-04-09T01:13:37.254Z,101813
2017-04-09T01:14:37.343Z,101817
2017-04-09T01:15:37.402Z,101822
2017-04-09T01:16:37.470Z,101820
2017-04-09T01:17:38.320Z,101823
2017-04-09T01:18:38.837Z,101820
2017-04-09T01:19:38.903Z,101823
2017-04-09T01:20:39.087Z,101823
2017-04-09T01:21:39.191Z,101827
2017-04-09T01:22:39.189Z,101827
2017-04-09T01:23:39.518Z,101822
2017-04-09T01:24:39.668Z,101819
2017-04-09T01:25:39.738Z,101824
2017-04-09T01:26:39.833Z,101816
2017-04-09T01:27:39.854Z,101816
2017-04-09T01:28:40.168Z,101815
2017-04-09T01:29:41.136Z,101823
2017-04-09T01:30:42.141Z,101817
2017-04-09T01:31:42.194Z,101820
2017-04-09T01:32:42.441Z,101819
2017-04-09T01:33:42.963Z,101821
2017-04-09T01:34:43.058Z,101813
2017-04-09T01:35:43.164Z,101814
2017-04-09T01:36:43.425Z,101815
2017-04-09T01:37:43.493Z,101817
2017-04-09T01:38:44.083Z,101814
2017-04-09T01:39:44.111Z,101818
2017-04-09T01:40:44.926Z,101813
2017-04-09T01:41:45.004Z,101823
2017-04-09T01:42:45.815Z,101818
2017-04-09T01:43:46.135Z,101823
2017-04-09T01:44:47.014Z,101817
2017-04-09T01:45:47.057Z,101821
2017-04-09T01:46:47.086Z,101819
2017-04-09T01:47:47.114Z,101816
2017-04-09T01:48:47.509Z,101811
2017-04-09T01:49:47.563Z,101814
2017-04-09T01:50:47.617Z,101809
2017-04-09T01:51:48.423Z,101808
2017-04-09T01:52:48.607Z,101806
2017-04-09T01:53:48.972Z,101812
2017-04-09T01:54:49.822Z,101803
2017-04-09T01:55:49.963Z,101812
2017-04-09T01:56:50.030Z,101808
2017-04-09T01:57:50.051Z,101811
2017-04-09T01:58:50.379Z,101808
2017-04-09T01:59:50.441Z,101815
2017-04-09T02:00:51.231Z,101807
2017-04-09T02:01:51.267Z,101812
2017-04-09T02:02:51.287Z,101810
2017-04-09T02:03:52.419Z,101811
2017-04-09T02:04:52.460Z,101806
2017-04-09T02:05:52.527Z,101802
2017-04-09T02:06:53.329Z,101802
2017-04-09T02:07:53.450Z,101802
2017-04-09T02:08:53.978Z,101808
2017-04-09T02:09:54.907Z,101801
2017-04-09T02:10:55.651Z,101801
2017-04-09T02:11:55.770Z,101803
2017-04-09T02:12:55.872Z,101806
2017-04-09T02:13:56.451Z,101798
2017-04-09T02:14:56.601Z,101801
2017-04-09T02:15:56.669Z,101800
2017-04-09T02:16:56.867Z,101799
2017-04-09T02:17:56.974Z,101794
2017-04-09T02:18:57.430Z,101801
2017-04-09T02:19:58.293Z,101799
2017-04-09T02:20:58.474Z,101807
2017-04-09T02:21:58.502Z,101804
2017-04-09T02:22:59.286Z,101800
2017-04-09T02:23:59.923Z,101799
2017-04-09T02:24:59.998Z,101804
2017-04-09T02:26:00.115Z,101808
2017-04-09T02:27:00.156Z,101800
2017-04-09T02:28:00.167Z,101798
2017-04-09T02:29:00.607Z,101804
2017-04-09T02:30:00.685Z,101805
2017-04-09T02:31:00.861Z,101806
2017-04-09T02:32:01.646Z,101810
2017-04-09T02:33:01.781Z,101805
2017-04-09T02:34:02.285Z,101812
2017-04-09T02:35:02.427Z,101803
2017-04-09T02:36:02.525Z,101811
2017-04-09T02:37:02.730Z,101804
2017-04-09T02:38:02.742Z,101801
2017-04-09T02:39:03.161Z,101804
2017-04-09T02:40:03.242Z,101803
2017-04-09T02:41:03.330Z,101808
2017-04-09T02:42:04.131Z,101805
2017-04-09T02:43:05.061Z,101814
2017-04-09T02:44:05.469Z,101801
2017-04-09T02:45:06.292Z,101806
2017-04-09T02:46:07.179Z,101806
2017-04-09T02:47:07.273Z,101803
2017-04-09T02:48:07.339Z,101804
2017-04-09T02:49:07.660Z,101805
2017-04-09T02:50:07.806Z,101804
2017-04-09T02:51:07.951Z,101803
2017-04-09T02:52:07.979Z,101806
2017-04-09T02:53:08.757Z,101808
2017-04-09T02:54:09.149Z,101806
2017-04-09T02:55:09.198Z,101803
2017-04-09T02:56:09.294Z,101802
2017-04-09T02:57:09.278Z,101802
2017-04-09T02:58:09.343Z,101808
2017-04-09T02:59:10.481Z,101803
2017-04-09T03:00:11.259Z,101803
2017-04-09T03:01:11.316Z,101803
2017-04-09T03:02:12.149Z,101795
2017-04-09T03:03:12.156Z,101796
2017-04-09T03:04:13.282Z,101794
2017-04-09T03:05:14.063Z,101795
2017-04-09T03:06:14.168Z,101797
2017-04-09T03:07:14.212Z,101794
2017-04-09T03:08:15.003Z,101789
2017-04-09T03:09:15.411Z,101796
2017-04-09T03:10:15.468Z,101795
2017-04-09T03:11:16.287Z,101797
2017-04-09T03:12:17.320Z,101791
2017-04-09T03:13:18.099Z,101783
2017-04-09T03:14:18.661Z,101796
2017-04-09T03:15:19.527Z,101799
2017-04-09T03:16:19.577Z,101795
2017-04-09T03:17:19.641Z,101792
2017-04-09T03:18:19.661Z,101791
2017-04-09T03:19:20.039Z,101793
2017-04-09T03:20:20.091Z,101791
2017-04-09T03:21:20.207Z,101794
2017-04-09T03:22:20.240Z,101793
2017-04-09T03:23:20.335Z,101794
2017-04-09T03:24:20.876Z,101789
2017-04-09T03:25:21.755Z,101792
2017-04-09T03:26:21.769Z,101786
2017-04-09T03:27:21.900Z,101795
2017-04-09T03:28:21.979Z,101791
2017-04-09T03:29:22.458Z,101787
2017-04-09T03:30:23.239Z,101785
2017-04-09T03:31:23.242Z,101784
2017-04-09T03:32:23.322Z,101786
2017-04-09T03:33:23.343Z,101788
2017-04-09T03:34:23.714Z,101785
2017-04-09T03:35:24.510Z,101785
2017-04-09T03:36:24.527Z,101790
2017-04-09T03:37:25.331Z,101783
2017-04-09T03:38:26.099Z,101784
2017-04-09T03:39:27.226Z,101787
2017-04-09T03:40:27.998Z,101783
2017-04-09T03:41:28.062Z,101787
2017-04-09T03:42:28.845Z,101786
2017-04-09T03:43:28.905Z,101784
2017-04-09T03:44:29.296Z,101781
2017-04-09T03:45:29.363Z,101782
2017-04-09T03:46:29.398Z,101783
2017-04-09T03:47:29.418Z,101782
2017-04-09T03:48:30.249Z,101775
2017-04-09T03:49:30.655Z,101783
2017-04-09T03:50:30.661Z,101786
2017-04-09T03:51:30.854Z,101783
2017-04-09T03:52:31.012Z,101786
2017-04-09T03:53:31.091Z,101788
2017-04-09T03:54:32.195Z,101790
2017-04-09T03:55:32.268Z,101782
2017-04-09T03:56:32.331Z,101788
2017-04-09T03:57:32.417Z,101785
2017-04-09T03:58:32.495Z,101788
2017-04-09T03:59:32.996Z,101788
2017-04-09T04:00:33.128Z,101784
2017-04-09T04:01:33.323Z,101787
2017-04-09T04:02:33.439Z,101775
2017-04-09T04:03:33.479Z,101784
2017-04-09T04:04:34.054Z,101784
2017-04-09T04:05:34.031Z,101782
2017-04-09T04:06:34.075Z,101779
2017-04-09T04:07:34.119Z,101782
2017-04-09T04:08:34.239Z,101775
2017-04-09T04:09:34.679Z,101779
2017-04-09T04:10:34.777Z,101780
2017-04-09T04:11:34.803Z,101782
2017-04-09T04:12:35.594Z,101781
2017-04-09T04:13:35.616Z,101786
2017-04-09T04:14:36.085Z,101789
2017-04-09T04:15:36.153Z,101794
2017-04-09T04:16:40.370Z,101783
2017-04-09T04:17:40.506Z,101785
2017-04-09T04:18:40.606Z,101787
2017-04-09T04:19:41.090Z,101785
2017-04-09T04:20:41.894Z,101786
2017-04-09T04:21:41.918Z,101792
2017-04-09T04:22:42.711Z,101790
2017-04-09T04:23:42.769Z,101788
2017-04-09T04:24:43.796Z,101788
2017-04-09T04:25:44.370Z,101791
2017-04-09T04:26:44.454Z,101790
2017-04-09T04:27:44.530Z,101788
2017-04-09T04:28:45.291Z,101793
2017-04-09T04:29:45.973Z,101790
2017-04-09T04:30:46.753Z,101791
2017-04-09T04:31:46.775Z,101796
2017-04-09T04:32:46.929Z,101792
2017-04-09T04:33:46.912Z,101794
2017-04-09T04:34:47.243Z,101794
2017-04-09T04:35:47.323Z,101794
2017-04-09T04:36:47.350Z,101794
2017-04-09T04:37:47.385Z,101797
2017-04-09T04:38:47.421Z,101797
2017-04-09T04:39:47.754Z,101796
2017-04-09T04:40:47.778Z,101794
2017-04-09T04:41:47.809Z,101794
2017-04-09T04:42:48.024Z,101802
2017-04-09T04:43:48.089Z,101803
2017-04-09T04:44:48.240Z,101799
2017-04-09T04:45:48.301Z,101798
2017-04-09T04:46:48.329Z,101799
2017-04-09T04:47:48.397Z,101797
2017-04-09T04:48:48.575Z,101796
2017-04-09T04:49:49.011Z,101802
2017-04-09T04:50:49.113Z,101804
2017-04-09T04:51:49.147Z,101806
2017-04-09T04:52:49.158Z,101806
2017-04-09T04:53:49.192Z,101805
2017-04-09T04:54:50.424Z,101806
2017-04-09T04:55:51.195Z,101805
2017-04-09T04:56:51.228Z,101799
2017-04-09T04:57:51.235Z,101809
2017-04-09T04:58:51.266Z,101811
2017-04-09T04:59:51.597Z,101806
2017-04-09T05:00:52.080Z,101812
2017-04-09T05:01:52.671Z,101812
2017-04-09T05:02:53.244Z,101809
2017-04-09T05:03:53.999Z,101815
2017-04-09T05:04:54.374Z,101815
2017-04-09T05:05:54.492Z,101816
2017-04-09T05:06:55.258Z,101816
2017-04-09T05:07:56.351Z,101812
2017-04-09T05:08:57.214Z,101809
2017-04-09T05:09:57.693Z,101816
2017-04-09T05:10:57.746Z,101811
2017-04-09T05:11:58.599Z,101809
2017-04-09T05:12:58.728Z,101808
2017-04-09T05:13:58.750Z,101806
2017-04-09T05:15:00.041Z,101816
2017-04-09T05:16:00.011Z,101810
2017-04-09T05:17:00.095Z,101819
2017-04-09T05:18:00.181Z,101813
2017-04-09T05:19:00.231Z,101814
2017-04-09T05:20:00.639Z,101812
2017-04-09T05:21:01.345Z,101813
2017-04-09T05:22:02.114Z,101820
2017-04-09T05:23:02.240Z,101814
2017-04-09T05:24:02.300Z,101812
2017-04-09T05:25:03.623Z,101815
2017-04-09T05:26:04.377Z,101814
2017-04-09T05:27:04.413Z,101811
2017-04-09T05:28:04.557Z,101810
2017-04-09T05:29:05.299Z,101810
2017-04-09T05:30:05.715Z,101811
2017-04-09T05:31:05.981Z,101810
2017-04-09T05:32:06.015Z,101811
2017-04-09T05:33:06.072Z,101810
2017-04-09T05:34:06.139Z,101811
2017-04-09T05:35:07.409Z,101812
2017-04-09T05:36:07.736Z,101818
2017-04-09T05:37:07.775Z,101815
2017-04-09T05:38:07.874Z,101817
2017-04-09T05:39:07.951Z,101815
2017-04-09T05:40:08.345Z,101821
2017-04-09T05:41:08.654Z,101823
2017-04-09T05:42:08.715Z,101817
2017-04-09T05:43:08.781Z,101823
2017-04-09T05:44:08.821Z,101816
2017-04-09T05:45:09.226Z,101823
2017-04-09T05:46:09.333Z,101823
2017-04-09T05:47:10.042Z,101824
2017-04-09T05:48:10.095Z,101828
2017-04-09T05:49:10.236Z,101831
2017-04-09T05:50:10.650Z,101818
2017-04-09T05:51:10.709Z,101824
2017-04-09T05:52:10.859Z,101823
2017-04-09T05:53:11.019Z,101826
2017-04-09T05:54:11.178Z,101827
2017-04-09T05:55:11.706Z,101829
2017-04-09T05:56:12.502Z,101825
2017-04-09T05:57:12.627Z,101823
2017-04-09T05:58:12.683Z,101824
2017-04-09T05:59:13.472Z,101829
2017-04-09T06:00:14.265Z,101822
2017-04-09T06:01:14.338Z,101824
2017-04-09T06:02:14.396Z,101825
2017-04-09T06:03:14.485Z,101826
2017-04-09T06:04:14.566Z,101820
2017-04-09T06:05:15.046Z,101819
2017-04-09T06:06:15.889Z,101824
2017-04-09T06:07:16.161Z,101817
2017-04-09T06:08:16.330Z,101822
2017-04-09T06:09:16.559Z,101825
2017-04-09T06:10:16.937Z,101826
2017-04-09T06:11:17.002Z,101835
2017-04-09T06:12:17.027Z,101833
2017-04-09T06:13:17.103Z,101834
2017-04-09T06:14:17.134Z,101833
2017-04-09T06:15:17.467Z,101831
2017-04-09T06:16:17.667Z,101832
2017-04-09T06:17:18.457Z,101831
2017-04-09T06:18:18.849Z,101827
2017-04-09T06:19:19.884Z,101835
2017-04-09T06:20:21.206Z,101833
2017-04-09T06:21:21.282Z,101827
2017-04-09T06:22:21.433Z,101839
2017-04-09T06:23:21.507Z,101831
2017-04-09T06:24:22.329Z,101830
2017-04-09T06:25:23.495Z,101831
2017-04-09T06:26:23.567Z,101835
2017-04-09T06:27:23.727Z,101835
2017-04-09T06:28:24.589Z,101840
2017-04-09T06:29:24.687Z,101840
2017-04-09T06:30:25.384Z,101834
2017-04-09T06:31:25.540Z,101836
2017-04-09T06:32:25.603Z,101837
2017-04-09T06:33:25.650Z,101839
2017-04-09T06:34:25.721Z,101837
2017-04-09T06:35:26.314Z,101839
2017-04-09T06:36:26.392Z,101833
2017-04-09T06:37:26.439Z,101834
2017-04-09T06:38:26.809Z,101839
2017-04-09T06:39:27.826Z,101839
2017-04-09T06:40:28.502Z,101840
2017-04-09T06:41:28.548Z,101829
2017-04-09T06:42:29.131Z,101842
2017-04-09T06:43:29.330Z,101836
2017-04-09T06:44:30.231Z,101843
2017-04-09T06:45:30.676Z,101842
2017-04-09T06:46:30.746Z,101841
2017-04-09T06:47:30.845Z,101839
2017-04-09T06:48:30.972Z,101851
2017-04-09T06:49:31.067Z,101846
2017-04-09T06:50:31.517Z,101850
2017-04-09T06:51:31.660Z,101860
2017-04-09T06:52:31.851Z,101847
2017-04-09T06:53:32.385Z,101850
2017-04-09T06:54:32.760Z,101847
2017-04-09T06:55:34.900Z,101850
2017-04-09T06:56:35.223Z,101851
2017-04-09T06:57:35.378Z,101857
2017-04-09T06:58:37.079Z,101857
2017-04-09T06:59:37.192Z,101860
2017-04-09T07:00:37.613Z,101857
2017-04-09T07:01:38.433Z,101851
2017-04-09T07:02:47.991Z,101850
2017-04-09T07:03:48.438Z,101854
2017-04-09T07:04:48.719Z,101855
2017-04-09T07:05:48.777Z,101854
2017-04-09T07:06:48.866Z,101855
2017-04-09T07:07:48.997Z,101853
2017-04-09T07:08:49.100Z,101853
2017-04-09T07:09:49.278Z,101857
2017-04-09T07:10:49.654Z,101853
2017-04-09T07:11:49.854Z,101853
2017-04-09T07:12:50.687Z,101856
2017-04-09T07:13:50.882Z,101856
2017-04-09T07:14:51.023Z,101850
2017-04-09T07:15:52.178Z,101849
2017-04-09T07:16:52.295Z,101859
2017-04-09T07:17:53.146Z,101850
2017-04-09T07:18:53.264Z,101857
2017-04-09T07:19:53.766Z,101860
2017-04-09T07:20:54.272Z,101857
2017-04-09T07:21:54.403Z,101857
2017-04-09T07:22:54.464Z,101857
2017-04-09T07:23:54.926Z,101850
2017-04-09T07:24:55.007Z,101854
2017-04-09T07:25:55.455Z,101855
2017-04-09T07:26:55.504Z,101850
2017-04-09T07:27:56.426Z,101854
2017-04-09T07:28:57.227Z,101849
2017-04-09T07:29:57.414Z,101857
2017-04-09T07:30:57.892Z,101856
2017-04-09T07:31:57.943Z,101858
2017-04-09T07:32:58.082Z,101857
2017-04-09T07:33:58.198Z,101851
2017-04-09T07:34:58.310Z,101855
2017-04-09T07:35:59.492Z,101852
2017-04-09T07:37:00.087Z,101856
2017-04-09T07:38:00.186Z,101857
2017-04-09T07:39:00.972Z,101857
2017-04-09T07:40:02.270Z,101856
2017-04-09T07:41:03.084Z,101870
2017-04-09T07:42:03.491Z,101865
2017-04-09T07:43:04.466Z,101862
2017-04-09T07:44:04.575Z,101864
2017-04-09T07:45:04.758Z,101863
2017-04-09T07:46:05.195Z,101863
2017-04-09T07:47:05.364Z,101858
2017-04-09T07:48:05.427Z,101862
2017-04-09T07:49:06.265Z,101860
2017-04-09T07:50:06.373Z,101859
2017-04-09T07:51:08.548Z,101863
2017-04-09T07:52:09.413Z,101861
2017-04-09T07:53:09.601Z,101856
2017-04-09T07:54:10.391Z,101857
2017-04-09T07:55:10.902Z,101859
2017-04-09T07:56:11.266Z,101856
2017-04-09T07:57:11.414Z,101863
2017-04-09T07:58:11.532Z,101860
2017-04-09T07:59:11.647Z,101857
2017-04-09T08:00:11.748Z,101858
2017-04-09T08:01:12.832Z,101855
2017-04-09T08:02:13.686Z,101856
2017-04-09T08:03:13.815Z,101851
2017-04-09T08:04:13.899Z,101859
2017-04-09T08:05:14.061Z,101851
2017-04-09T08:06:15.308Z,101854
2017-04-09T08:07:16.134Z,101858
2017-04-09T08:08:16.960Z,101855
2017-04-09T08:09:17.814Z,101853
2017-04-09T08:10:18.047Z,101845
2017-04-09T08:11:18.513Z,101845
2017-04-09T08:12:19.351Z,101847
2017-04-09T08:13:20.150Z,101850
2017-04-09T08:14:21.198Z,101858
2017-04-09T08:15:22.057Z,101851
2017-04-09T08:16:22.675Z,101849
2017-04-09T08:17:22.754Z,101856
2017-04-09T08:18:23.635Z,101851
2017-04-09T08:19:23.751Z,101849
2017-04-09T08:20:23.826Z,101851
2017-04-09T08:21:24.317Z,101846
2017-04-09T08:22:25.120Z,101849
2017-04-09T08:23:25.210Z,101849
2017-04-09T08:24:25.350Z,101849
2017-04-09T08:25:25.453Z,101850
2017-04-09T08:26:25.889Z,101849
2017-04-09T08:27:26.008Z,101847
2017-04-09T08:28:26.147Z,101853
2017-04-09T08:29:26.343Z,101848
2017-04-09T08:30:26.398Z,101848
2017-04-09T08:31:26.841Z,101852
2017-04-09T08:32:27.001Z,101851
2017-04-09T08:33:27.159Z,101849
2017-04-09T08:34:27.987Z,101844
2017-04-09T08:35:28.118Z,101844
2017-04-09T08:36:28.624Z,101853
2017-04-09T08:37:28.726Z,101850
2017-04-09T08:38:29.561Z,101844
2017-04-09T08:39:29.593Z,101842
2017-04-09T08:40:29.689Z,101847
2017-04-09T08:41:31.534Z,101849
2017-04-09T08:42:31.595Z,101848
2017-04-09T08:43:31.688Z,101846
2017-04-09T08:44:32.159Z,101848
2017-04-09T08:45:32.214Z,101847
2017-04-09T08:46:32.641Z,101849
2017-04-09T08:47:32.760Z,101850
2017-04-09T08:48:32.814Z,101846
2017-04-09T08:49:32.874Z,101837
2017-04-09T08:50:32.893Z,101849
2017-04-09T08:51:34.145Z,101851
2017-04-09T08:52:34.284Z,101852
2017-04-09T08:53:34.368Z,101846
2017-04-09T08:54:34.464Z,101844
2017-04-09T08:55:34.570Z,101843
2017-04-09T08:56:35.646Z,101840
2017-04-09T08:57:35.703Z,101845
2017-04-09T08:58:35.782Z,101843
2017-04-09T08:59:35.862Z,101842
2017-04-09T09:00:35.963Z,101827
2017-04-09T09:01:36.464Z,101835
2017-04-09T09:02:36.586Z,101838
2017-04-09T09:03:36.739Z,101838
2017-04-09T09:04:36.923Z,101834
2017-04-09T09:05:37.030Z,101839
2017-04-09T09:06:37.500Z,101837
2017-04-09T09:07:38.353Z,101833
2017-04-09T09:08:38.446Z,101838
2017-04-09T09:09:39.211Z,101841
2017-04-09T09:10:39.271Z,101829
2017-04-09T09:11:41.324Z,101833
2017-04-09T09:12:42.152Z,101820
2017-04-09T09:13:42.265Z,101825
2017-04-09T09:14:43.157Z,101826
2017-04-09T09:15:43.165Z,101824
2017-04-09T09:16:43.306Z,101828
2017-04-09T09:17:44.103Z,101826
2017-04-09T09:18:44.193Z,101827
2017-04-09T09:19:44.191Z,101827
2017-04-09T09:20:44.316Z,101829
2017-04-09T09:21:44.881Z,101824
2017-04-09T09:22:44.963Z,101827
2017-04-09T09:23:45.052Z,101828
2017-04-09T09:24:45.248Z,101830
2017-04-09T09:25:45.332Z,101825
2017-04-09T09:26:45.739Z,101822
2017-04-09T09:27:45.793Z,101819
2017-04-09T09:28:45.866Z,101822
2017-04-09T09:29:45.919Z,101828
2017-04-09T09:30:45.956Z,101828
2017-04-09T09:31:47.112Z,101819
2017-04-09T09:32:47.194Z,101816
2017-04-09T09:33:47.961Z,101830
2017-04-09T09:34:48.013Z,101823
2017-04-09T09:35:48.820Z,101818
2017-04-09T09:36:49.271Z,101822
2017-04-09T09:37:50.075Z,101822
2017-04-09T09:38:50.188Z,101817
2017-04-09T09:39:50.308Z,101818
2017-04-09T09:40:51.076Z,101818
2017-04-09T09:41:51.659Z,101823
2017-04-09T09:42:51.773Z,101820
2017-04-09T09:43:51.925Z,101817
2017-04-09T09:44:52.269Z,101816
2017-04-09T09:45:52.671Z,101820
2017-04-09T09:46:53.306Z,101818
2017-04-09T09:47:53.374Z,101821
2017-04-09T09:48:53.653Z,101822
2017-04-09T09:49:54.620Z,101815
2017-04-09T09:50:54.863Z,101824
2017-04-09T09:51:55.410Z,101823
2017-04-09T09:52:56.479Z,101819
2017-04-09T09:53:56.669Z,101809
2017-04-09T09:54:57.724Z,101812
2017-04-09T09:55:57.953Z,101821
2017-04-09T09:56:58.426Z,101809
2017-04-09T09:57:58.749Z,101818
2017-04-09T09:58:58.884Z,101816
2017-04-09T09:59:59.131Z,101819
2017-04-09T10:00:59.296Z,101815
2017-04-09T10:01:59.877Z,101819
2017-04-09T10:03:00.716Z,101818
2017-04-09T10:04:00.862Z,101811
2017-04-09T10:05:00.934Z,101817
2017-04-09T10:06:01.006Z,101807
2017-04-09T10:07:02.609Z,101815
2017-04-09T10:08:02.776Z,101819
2017-04-09T10:09:03.039Z,101821
2017-04-09T10:10:03.879Z,101817
2017-04-09T10:11:04.095Z,101813
2017-04-09T10:12:05.061Z,101814
2017-04-09T10:13:05.886Z,101810
2017-04-09T10:14:06.759Z,101813
2017-04-09T10:15:07.069Z,101805
2017-04-09T10:16:07.150Z,101803
2017-04-09T10:17:07.551Z,101805
2017-04-09T10:18:08.187Z,101804
2017-04-09T10:19:08.348Z,101808
2017-04-09T10:20:08.465Z,101804
2017-04-09T10:21:08.595Z,101805
2017-04-09T10:22:09.389Z,101801
2017-04-09T10:23:09.580Z,101803
2017-04-09T10:24:09.671Z,101804
2017-04-09T10:25:11.308Z,101800
2017-04-09T10:26:11.922Z,101796
2017-04-09T10:27:12.648Z,101795
2017-04-09T10:28:12.914Z,101802
2017-04-09T10:29:13.042Z,101792
2017-04-09T10:30:13.151Z,101799
2017-04-09T10:31:14.111Z,101796
2017-04-09T10:32:14.711Z,101792
2017-04-09T10:33:14.826Z,101796
2017-04-09T10:34:15.001Z,101788
2017-04-09T11:11:25.819Z,101758
2017-04-09T11:12:26.899Z,101762
2017-04-09T11:13:27.410Z,101762
2017-04-09T11:14:27.731Z,101762
2017-04-09T11:15:27.890Z,101759
2017-04-09T12:07:56.827Z,101708
2017-04-09T12:08:56.107Z,101697
2017-04-09T12:09:56.147Z,101693
2017-04-09T12:10:55.449Z,101688
2017-04-09T12:11:55.104Z,101696
2017-04-09T12:12:55.143Z,101694
2017-04-09T12:13:54.372Z,101695
2017-04-09T12:14:53.656Z,101693
2017-04-09T12:15:52.954Z,101692
2017-04-09T12:16:53.751Z,101690
2017-04-09T12:17:53.838Z,101681
2017-04-09T12:18:53.926Z,101682
2017-04-09T12:19:54.003Z,101685
2017-04-09T12:20:54.930Z,101678
2017-04-09T12:21:55.731Z,101681
2017-04-09T12:22:55.790Z,101682
2017-04-09T12:23:56.059Z,101680
2017-04-09T12:24:56.144Z,101684
2017-04-09T12:25:56.182Z,101682
2017-04-09T12:26:57.050Z,101673
2017-04-09T12:27:57.550Z,101679
2017-04-09T12:28:57.594Z,101682
2017-04-09T12:29:57.654Z,101676
2017-04-09T12:30:58.470Z,101683
2017-04-09T12:31:59.313Z,101675
2017-04-09T12:32:59.004Z,101671
2017-04-09T12:34:00.314Z,101670
2017-04-09T12:35:00.502Z,101667
2017-04-09T12:36:00.651Z,101668
2017-04-09T12:37:01.394Z,101659
2017-04-09T12:38:01.899Z,101659
2017-04-09T12:39:02.724Z,101659
2017-04-09T12:40:03.490Z,101657
2017-04-09T12:41:03.552Z,101656
2017-04-09T12:42:04.803Z,101651
2017-04-09T12:43:05.207Z,101657
2017-04-09T12:44:06.066Z,101655
2017-04-09T12:45:06.286Z,101649
2017-04-09T12:46:06.361Z,101653
2017-04-09T12:47:07.114Z,101642
2017-04-09T12:48:07.225Z,101646
2017-04-09T12:49:07.368Z,101654
2017-04-09T12:50:07.444Z,101646
2017-04-09T12:51:08.131Z,101650
2017-04-09T12:52:08.184Z,101645
2017-04-09T12:53:08.762Z,101639
2017-04-09T12:54:09.605Z,101651
2017-04-09T12:55:09.662Z,101636
2017-04-09T12:56:09.706Z,101639
2017-04-09T12:57:09.842Z,101640
2017-04-09T12:58:10.333Z,101638
2017-04-09T12:59:10.381Z,101637
2017-04-09T13:00:10.432Z,101635
2017-04-09T13:01:11.362Z,101628
2017-04-09T13:02:12.219Z,101632
2017-04-09T13:03:13.273Z,101624
2017-04-09T13:04:13.585Z,101630
2017-04-09T13:05:13.695Z,101628
2017-04-09T13:06:13.833Z,101633
2017-04-09T13:07:14.661Z,101628
2017-04-09T13:08:15.091Z,101623
2017-04-09T13:09:15.843Z,101621
2017-04-09T13:10:16.072Z,101625
2017-04-09T13:11:16.435Z,101617
2017-04-09T13:12:17.408Z,101624
2017-04-09T13:13:17.804Z,101622
2017-04-09T13:14:17.878Z,101631
2017-04-09T13:15:18.095Z,101619
2017-04-09T13:16:18.931Z,101616
2017-04-09T13:17:19.927Z,101607
2017-04-09T13:18:20.383Z,101608
2017-04-09T13:19:21.189Z,101614
2017-04-09T13:20:21.271Z,101609
2017-04-09T13:21:22.266Z,101609
2017-04-09T13:22:22.317Z,101605
2017-04-09T13:23:22.774Z,101607
2017-04-09T13:24:22.882Z,101605
2017-04-09T13:25:22.973Z,101607
2017-04-09T13:26:23.760Z,101613
2017-04-09T13:27:24.590Z,101607
2017-04-09T13:28:25.354Z,101609
2017-04-09T13:29:26.183Z,101600
2017-04-09T13:30:26.315Z,101598
2017-04-09T13:31:26.384Z,101601
2017-04-09T13:32:26.591Z,101605
2017-04-09T13:33:28.978Z,101602
2017-04-09T13:34:29.873Z,101598
2017-04-09T13:35:29.904Z,101602
2017-04-09T13:36:30.693Z,101609
2017-04-09T13:37:30.768Z,101603
2017-04-09T13:41:01.227Z,101601
2017-04-09T13:42:01.372Z,101604
2017-04-09T13:43:02.216Z,101595
2017-04-09T13:44:02.638Z,101597
2017-04-09T13:45:04.111Z,101590
2017-04-09T13:46:04.179Z,101592
2017-04-09T13:47:05.042Z,101592
2017-04-09T13:48:05.136Z,101591
2017-04-09T13:49:05.623Z,101597
2017-04-09T13:50:06.391Z,101590
2017-04-09T13:51:06.536Z,101583
2017-04-09T13:52:06.638Z,101584
2017-04-09T13:53:06.722Z,101590
2017-04-09T13:54:07.425Z,101574
2017-04-09T13:55:07.816Z,101576
2017-04-09T13:56:08.609Z,101576
2017-04-09T13:57:09.783Z,101577
2017-04-09T13:58:09.913Z,101574
2017-04-09T13:59:10.406Z,101572
2017-04-09T14:00:11.262Z,101567
2017-04-09T14:01:11.359Z,101564
2017-04-09T14:02:11.779Z,101560
2017-04-09T14:03:12.344Z,101569